Time;durP1;ratioP1;P1;durP2;ratioP2;P2;SDS_P1;SDS_P2;PMS_P1;PMS_P2;Temp;Humidity;BMP_temperature;BMP_pressure;BME280_temperature;BME280_humidity;BME280_pressure;Samples;Min_cycle;Max_cycle;Signal;HPM_P1;HPM_P2
2020/12/28 00:00:43;;;;;;;;;;;;;;;;;;;;;
2020/12/28 00:03:24;;;;;;;;;;;;;;;;;;;;;
2020/12/28 00:05:53;;;;;;;;;;;6.00;92.50;;;;;;6187782;23;20060;-87
2020/12/28 00:08:59;;;;;;;;;;;;;;;;;;;;;
2020/12/28 00:12:29;;;;;;;3.83;3.42;;;6.00;92.50;;;;;;6176286;23;20072;-87
2020/12/28 00:15:12;;;;;;;;;;;;;;;;;;;;;
2020/12/28 00:18:06;;;;;;;5.38;3.80;;;5.90;92.50;;;;;;6184167;23;20066;-87
2020/12/28 00:27:55;;;;;;;;;;;;;;;;;;;;;
2020/12/28 00:34:33;;;;;;;5.45;4.93;;;5.90;92.50;;;;;;6114122;23;20021;-86
2020/12/28 00:37:24;;;;;;;5.03;4.53;;;5.90;92.80;;;;;;6101561;23;20014;-88
2020/12/28 00:39:55;;;;;;;6.82;5.60;;;5.90;92.50;;;;;;6163162;23;20033;-86
2020/12/28 00:45:43;;;;;;;;;;;;;;;;;;;;;
2020/12/28 00:48:33;;;;;;;6.50;5.78;;;5.90;92.50;;;;;;6187162;23;20459;-87
2020/12/28 00:51:24;;;;;;;6.55;5.45;;;5.90;92.50;;;;;;6162377;23;20093;-87
2020/12/28 00:54:00;;;;;;;8.27;5.63;;;5.90;92.50;;;;;;6160043;23;20064;-87
2020/12/28 00:56:55;;;;;;;6.38;5.38;;;5.90;92.50;;;;;;6161257;23;20295;-85
2020/12/28 00:59:48;;;;;;;;;;;;;;;;;;;;;
2020/12/28 01:02:50;;;;;;;8.07;5.55;;;5.90;92.50;;;;;;6185311;23;20076;-87
2020/12/28 01:05:27;;;;;;;8.88;5.55;;;6.00;92.50;;;;;;6164208;23;20005;-87
2020/12/28 01:08:20;;;;;;;6.82;5.72;;;6.00;92.50;;;;;;6162303;23;20095;-87
2020/12/28 01:11:39;;;;;;;6.32;5.70;;;5.90;92.50;;;;;;6163980;23;20012;-87
2020/12/28 01:14:42;;;;;;;6.82;5.80;;;6.00;92.50;;;;;;6163386;23;20006;-88
2020/12/28 01:21:26;;;;;;;7.10;5.60;;;5.90;92.40;;;;;;5976202;23;20319;-86
2020/12/28 01:24:04;;;;;;;5.88;5.30;;;5.90;92.40;;;;;;6041878;23;20006;-89
2020/12/28 01:30:14;;;;;;;6.53;5.90;;;6.00;92.50;;;;;;6077554;23;20005;-87
2020/12/28 01:32:49;;;;;;;6.60;5.23;;;6.00;92.50;;;;;;6183698;23;20013;-87
2020/12/28 01:35:46;;;;;;;6.20;5.60;;;5.90;92.50;;;;;;6185319;23;20248;-88
2020/12/28 01:41:46;;;;;;;6.88;5.07;;;6.00;92.50;;;;;;6185822;23;20449;-88
2020/12/28 01:44:21;;;;;;;6.55;4.80;;;5.90;92.50;;;;;;6160927;23;20009;-87
2020/12/28 01:47:04;;;;;;;;;;;;;;;;;;;;;
2020/12/28 01:52:54;;;;;;;;;;;;;;;;;;;;;
2020/12/28 01:55:32;;;;;;;5.05;4.35;;;5.90;92.40;;;;;;6184348;23;19983;-86
2020/12/28 02:01:48;;;;;;;;;;;;;;;;;;;;;
2020/12/28 02:04:45;;;;;;;;;;;;;;;;;;;;;
2020/12/28 02:07:24;;;;;;;;;;;;;;;;;;;;;
2020/12/28 02:10:29;;;;;;;4.63;3.95;;;5.90;92.40;;;;;;6187178;23;20076;-88
2020/12/28 02:16:31;;;;;;;4.13;3.53;;;5.90;92.40;;;;;;6095642;23;20628;-87
2020/12/28 02:19:27;;;;;;;;;;;;;;;;;;;;;
2020/12/28 02:22:06;;;;;;;4.18;3.78;;;5.90;92.40;;;;;;6077706;23;20082;-87
2020/12/28 02:24:43;;;;;;;4.93;3.80;;;5.90;92.40;;;;;;6072321;23;20054;-86
2020/12/28 02:27:18;;;;;;;5.03;3.80;;;5.90;92.40;;;;;;6049287;23;20042;-87
2020/12/28 02:30:14;;;;;;;4.13;3.45;;;5.90;92.40;;;;;;6096109;23;20441;-88
2020/12/28 02:33:21;;;;;;;;;;;;;;;;;;;;;
2020/12/28 02:35:49;;;;;;;3.63;3.33;;;5.90;92.40;;;;;;6053723;23;20011;-86
2020/12/28 02:38:17;;;;;;;4.97;3.50;;;5.90;92.30;;;;;;6095130;23;20017;-86
2020/12/28 02:41:08;;;;;;;4.65;3.50;;;5.90;92.30;;;;;;6072808;23;20424;-88
2020/12/28 02:44:14;;;;;;;4.17;3.37;;;5.90;92.40;;;;;;6079344;23;20377;-87
2020/12/28 02:46:56;;;;;;;3.92;3.40;;;5.90;92.40;;;;;;6132352;23;20252;-89
2020/12/28 02:49:35;;;;;;;;;;;;;;;;;;;;;
2020/12/28 02:52:24;;;;;;;3.63;3.33;;;5.80;92.30;;;;;;6187628;23;20368;-88
2020/12/28 02:55:02;;;;;;;;;;;;;;;;;;;;;
2020/12/28 02:57:42;;;;;;;5.65;4.10;;;5.90;92.30;;;;;;6187391;23;20514;-86
2020/12/28 03:00:27;;;;;;;5.05;4.10;;;5.80;92.30;;;;;;6163352;23;20371;-88
2020/12/28 03:03:03;;;;;;;4.88;4.25;;;5.80;92.30;;;;;;6185528;23;20056;-87
2020/12/28 03:05:58;;;;;;;5.30;3.90;;;5.80;92.30;;;;;;6185723;23;20005;-86
2020/12/28 03:08:50;;;;;;;;;;;;;;;;;;;;;
2020/12/28 03:11:48;;;;;;;;;;;;;;;;;;;;;
2020/12/28 03:14:30;;;;;;;6.50;4.55;;;5.80;92.30;;;;;;6186493;23;20100;-87
2020/12/28 03:17:21;;;;;;;5.30;4.20;;;5.80;92.30;;;;;;6185610;23;20005;-89
2020/12/28 03:20:23;;;;;;;5.75;4.35;;;5.80;92.30;;;;;;6186047;23;20015;-89
2020/12/28 03:23:14;;;;;;;6.35;4.93;;;5.80;92.30;;;;;;6164361;23;20005;-89
2020/12/28 03:26:29;;;;;;;8.13;5.25;;;5.80;92.30;;;;;;6162167;23;20097;-89
2020/12/28 03:29:13;;;;;;;;;;;;;;;;;;;;;
2020/12/28 03:31:46;;;;;;;6.07;4.30;;;5.80;92.20;;;;;;6186830;23;20375;-89
2020/12/28 03:34:33;;;;;;;;;;;;;;;;;;;;;
2020/12/28 03:37:30;;;;;;;5.75;4.53;;;5.80;92.10;;;;;;6186792;23;20080;-88
2020/12/28 03:46:58;;;;;;;;;;;;;;;;;;;;;
2020/12/28 03:49:57;;;;;;;5.07;4.15;;;5.70;92.00;;;;;;6188173;23;20068;-88
2020/12/28 03:55:47;;;;;;;7.75;5.50;;;5.70;92.00;;;;;;6176165;23;20009;-89
2020/12/28 03:58:56;;;;;;;;;;;;;;;;;;;;;
2020/12/28 04:01:30;;;;;;;8.15;5.07;;;5.70;91.90;;;;;;6186653;23;20084;-88
2020/12/28 04:04:29;;;;;;;8.75;5.70;;;5.70;91.90;;;;;;6137851;23;20083;-89
2020/12/28 04:10:33;;;;;;;;;;;;;;;;;;;;;
2020/12/28 04:13:21;;;;;;;;;;;;;;;;;;;;;
2020/12/28 04:18:58;;;;;;;;;;;;;;;;;;;;;
2020/12/28 04:21:29;;;;;;;7.57;5.93;;;5.60;91.80;;;;;;6186079;23;20304;-88
2020/12/28 04:24:33;;;;;;;7.78;5.50;;;5.60;91.80;;;;;;6160329;23;20005;-88
2020/12/28 04:27:03;;;;;;;7.90;5.47;;;5.60;91.80;;;;;;6185425;23;20005;-88
2020/12/28 04:30:10;;;;;;;;;;;;;;;;;;;;;
2020/12/28 04:32:54;;;;;;;;;;;;;;;;;;;;;
2020/12/28 04:35:36;;;;;;;8.38;5.68;;;5.50;91.80;;;;;;6185989;23;20072;-88
2020/12/28 04:38:58;;;;;;;;;;;;;;;;;;;;;
2020/12/28 04:41:52;;;;;;;6.60;4.85;;;5.50;91.70;;;;;;6186164;23;20083;-89
2020/12/28 04:44:31;;;;;;;;;;;;;;;;;;;;;
2020/12/28 04:47:43;;;;;;;7.07;5.15;;;5.40;91.70;;;;;;6185218;23;20092;-89
2020/12/28 04:50:43;;;;;;;;;;;;;;;;;;;;;
2020/12/28 04:53:34;;;;;;;6.00;4.75;;;5.30;91.60;;;;;;6186363;23;20096;-89
2020/12/28 04:56:33;;;;;;;8.77;4.93;;;5.30;91.60;;;;;;6184267;23;20438;-88
2020/12/28 04:59:13;;;;;;;6.30;4.65;;;5.20;91.50;;;;;;6176628;23;20435;-88
2020/12/28 05:02:11;;;;;;;6.18;4.38;;;5.20;91.50;;;;;;6161270;23;20009;-89
2020/12/28 05:05:14;;;;;;;5.32;4.13;;;5.10;91.40;;;;;;6185191;23;20438;-90
2020/12/28 05:08:25;;;;;;;;;;;;;;;;;;;;;
2020/12/28 05:14:27;;;;;;;;;;;;;;;;;;;;;
2020/12/28 05:17:31;;;;;;;;;;;;;;;;;;;;;
2020/12/28 05:20:44;;;;;;;7.38;4.00;;;4.80;91.30;;;;;;6186041;23;20092;-89
2020/12/28 05:23:42;;;;;;;7.07;3.78;;;4.70;91.20;;;;;;6183666;23;20013;-88
2020/12/28 05:33:23;;;;;;;;;;;;;;;;;;;;;
2020/12/28 05:35:58;;;;;;;5.43;3.63;;;4.50;91.30;;;;;;6092254;23;20088;-88
2020/12/28 05:38:38;;;;;;;5.47;3.70;;;4.40;91.20;;;;;;6135987;23;20012;-88
2020/12/28 05:41:18;;;;;;;;;;;;;;;;;;;;;
2020/12/28 05:44:10;;;;;;;;;;;;;;;;;;;;;
2020/12/28 05:47:12;;;;;;;;;;;;;;;;;;;;;
2020/12/28 05:53:34;;;;;;;;;;;;;;;;;;;;;
2020/12/28 05:56:33;;;;;;;;;;;;;;;;;;;;;
2020/12/28 05:59:43;;;;;;;8.07;4.43;;;4.20;91.40;;;;;;6185554;23;20080;-88
2020/12/28 06:02:38;;;;;;;;;;;;;;;;;;;;;
2020/12/28 06:05:26;;;;;;;5.55;4.25;;;4.20;91.60;;;;;;6186361;23;20049;-88
2020/12/28 06:08:18;;;;;;;;;;;;;;;;;;;;;
2020/12/28 06:11:41;;;;;;;;;;;;;;;;;;;;;
2020/12/28 06:15:04;;;;;;;;;;;;;;;;;;;;;
2020/12/28 06:18:05;;;;;;;;;;;;;;;;;;;;;
2020/12/28 06:21:01;;;;;;;;;;;;;;;;;;;;;
2020/12/28 06:24:00;;;;;;;;;;;;;;;;;;;;;
2020/12/28 06:26:39;;;;;;;6.63;5.50;;;4.40;91.90;;;;;;6172494;23;20084;-89
2020/12/28 06:29:31;;;;;;;7.43;5.45;;;4.40;91.90;;;;;;6158459;23;20017;-89
2020/12/28 06:32:15;;;;;;;;;;;4.50;92.00;;;;;;6168255;23;20002;-88
2020/12/28 06:35:21;;;;;;;8.68;5.57;;;4.50;92.00;;;;;;6185764;23;19983;-88
2020/12/28 06:38:43;;;;;;;;;;;;;;;;;;;;;
2020/12/28 06:41:32;;;;;;;8.25;6.63;;;4.50;92.00;;;;;;6155759;23;20005;-88
2020/12/28 06:44:01;;;;;;;8.82;7.18;;;4.60;92.00;;;;;;6185151;23;20001;-88
2020/12/28 06:46:50;;;;;;;11.63;8.55;;;4.60;92.00;;;;;;6185500;23;20009;-87
2020/12/28 06:49:54;;;;;;;;;;;;;;;;;;;;;
2020/12/28 06:56:31;;;;;;;12.80;9.70;;;4.60;92.10;;;;;;6176359;23;20375;-87
2020/12/28 06:59:27;;;;;;;13.80;9.25;;;4.70;92.10;;;;;;6185930;23;20009;-88
2020/12/28 07:08:39;;;;;;;;;;;;;;;;;;;;;
2020/12/28 07:20:56;;;;;;;;;;;;;;;;;;;;;
2020/12/28 07:30:54;;;;;;;11.10;8.48;;;4.60;92.10;;;;;;6158800;23;20060;-88
2020/12/28 07:33:44;;;;;;;15.45;8.40;;;4.60;92.10;;;;;;6170432;23;20016;-89
2020/12/28 07:36:42;;;;;;;;;;;;;;;;;;;;;
2020/12/28 07:39:32;;;;;;;10.20;7.45;;;4.60;92.20;;;;;;6186917;23;20490;-89
2020/12/28 07:42:29;;;;;;;10.05;7.57;;;4.60;92.20;;;;;;6185490;23;20001;-88
2020/12/28 07:45:29;;;;;;;9.93;6.82;;;4.60;92.30;;;;;;6166262;23;20150;-88
2020/12/28 07:48:36;;;;;;;;;;;;;;;;;;;;;
2020/12/28 07:51:17;;;;;;;9.57;6.78;;;4.60;92.30;;;;;;6187339;23;20084;-88
2020/12/28 07:54:07;;;;;;;;;;;;;;;;;;;;;
2020/12/28 07:57:18;;;;;;;8.48;5.43;;;4.70;92.30;;;;;;6186103;23;20482;-89
2020/12/28 08:00:28;;;;;;;;;;;;;;;;;;;;;
2020/12/28 08:06:59;;;;;;;7.10;4.40;;;4.70;92.30;;;;;;6057106;23;20053;-88
2020/12/28 08:09:39;;;;;;;5.93;4.75;;;4.70;92.20;;;;;;6157280;23;20009;-88
2020/12/28 08:15:45;;;;;;;6.93;4.10;;;4.80;92.20;;;;;;6150968;23;20040;-88
2020/12/28 08:18:27;;;;;;;5.78;4.40;;;4.80;92.20;;;;;;6131858;23;20484;-88
2020/12/28 08:21:01;;;;;;;4.45;4.00;;;4.80;92.20;;;;;;6185635;23;20005;-88
2020/12/28 08:23:50;;;;;;;;;;;;;;;;;;;;;
2020/12/28 08:26:32;;;;;;;7.03;5.13;;;4.80;92.20;;;;;;6186078;23;20088;-88
2020/12/28 08:32:26;;;;;;;5.30;4.03;;;4.80;92.20;;;;;;6175418;23;20531;-88
2020/12/28 08:35:00;;;;;;;4.63;3.60;;;4.80;92.20;;;;;;6186043;23;20001;-89
2020/12/28 08:40:56;;;;;;;;;;;;;;;;;;;;;
2020/12/28 08:44:05;;;;;;;;;;;;;;;;;;;;;
2020/12/28 08:46:57;;;;;;;;;;;;;;;;;;;;;
2020/12/28 08:49:53;;;;;;;9.02;4.50;;;4.80;92.10;;;;;;6183958;23;20076;-88
2020/12/28 08:53:11;;;;;;;4.10;3.70;;;4.80;92.10;;;;;;6180410;23;20024;-88
2020/12/28 08:56:00;;;;;;;5.68;3.90;;;4.80;92.10;;;;;;6012305;23;20078;-88
2020/12/28 09:02:36;;;;;;;;;;;;;;;;;;;;;
2020/12/28 09:05:15;;;;;;;5.47;4.07;;;4.90;92.10;;;;;;6173434;23;20009;-87
2020/12/28 09:11:07;;;;;;;;;;;;;;;;;;;;;
2020/12/28 09:14:23;;;;;;;;;;;;;;;;;;;;;
2020/12/28 09:17:28;;;;;;;5.47;3.20;;;4.90;92.10;;;;;;6176840;23;20092;-87
2020/12/28 09:20:25;;;;;;;4.57;3.42;;;4.80;92.10;;;;;;6186565;23;20005;-86
2020/12/28 09:23:39;;;;;;;4.03;3.05;;;4.80;92.00;;;;;;6184955;23;20371;-87
2020/12/28 09:26:29;;;;;;;;;;;;;;;;;;;;;
2020/12/28 09:29:38;;;;;;;3.80;3.20;;;4.90;92.00;;;;;;6183943;23;20483;-87
2020/12/28 09:32:53;;;;;;;;;;;;;;;;;;;;;
2020/12/28 09:36:02;;;;;;;3.40;2.58;;;4.90;92.00;;;;;;6184904;23;20084;-87
2020/12/28 09:38:41;;;;;;;4.20;2.70;;;5.00;92.00;;;;;;6182667;23;20013;-87
2020/12/28 09:41:26;;;;;;;3.20;2.83;;;4.90;92.00;;;;;;6159302;23;20016;-87
2020/12/28 09:44:32;;;;;;;3.42;2.33;;;5.00;92.00;;;;;;6184722;23;20001;-86
2020/12/28 09:53:42;;;;;;;2.53;2.28;;;5.00;91.90;;;;;;6157442;23;20450;-87
2020/12/28 09:59:30;;;;;;;3.05;2.20;;;5.00;91.90;;;;;;6168119;23;20020;-87
2020/12/28 10:01:59;;;;;;;3.50;2.30;;;5.00;91.90;;;;;;6183838;23;20434;-86
2020/12/28 10:05:22;;;;;;;;;;;;;;;;;;;;;
2020/12/28 10:08:23;;;;;;;;;;;;;;;;;;;;;
2020/12/28 10:11:00;;;;;;;;;;;;;;;;;;;;;
2020/12/28 10:13:26;;;;;;;2.25;1.80;;;5.10;91.90;;;;;;6185826;23;20077;-83
2020/12/28 10:16:30;;;;;;;;;;;;;;;;;;;;;
2020/12/28 10:19:41;;;;;;;;;;;;;;;;;;;;;
2020/12/28 10:22:18;;;;;;;8.13;3.97;;;5.20;92.00;;;;;;6186253;23;20088;-89
2020/12/28 10:31:46;;;;;;;3.83;2.25;;;5.30;91.90;;;;;;6169597;23;20009;-88
2020/12/28 10:34:41;;;;;;;3.47;1.90;;;5.30;91.90;;;;;;6185543;23;20001;-88
2020/12/28 10:37:16;;;;;;;2.60;1.73;;;5.30;91.90;;;;;;6186257;23;20323;-87
2020/12/28 10:39:53;;;;;;;2.28;1.52;;;5.40;91.90;;;;;;6185362;23;20005;-87
2020/12/28 10:43:13;;;;;;;4.32;1.80;;;5.40;91.90;;;;;;6161693;23;20005;-86
2020/12/28 10:45:56;;;;;;;4.50;1.77;;;5.40;91.90;;;;;;6176146;23;20005;-87
2020/12/28 10:51:57;;;;;;;4.03;2.00;;;5.40;91.80;;;;;;6175370;23;20067;-87
2020/12/28 10:54:43;;;;;;;;;;;;;;;;;;;;;
2020/12/28 11:00:34;;;;;;;;;;;;;;;;;;;;;
2020/12/28 11:03:28;;;;;;;2.65;1.50;;;5.50;91.50;;;;;;6084395;23;20089;-88
2020/12/28 11:06:05;;;;;;;2.08;1.45;;;5.50;91.40;;;;;;6165551;23;20075;-87
2020/12/28 11:15:31;;;;;;;;;;;;;;;;;;;;;
2020/12/28 11:18:48;;;;;;;;;;;;;;;;;;;;;
2020/12/28 11:24:32;;;;;;;2.78;1.50;;;5.50;91.30;;;;;;6176569;23;20009;-87
2020/12/28 11:27:31;;;;;;;3.95;1.70;;;5.50;91.30;;;;;;6163410;23;20403;-87
2020/12/28 11:30:50;;;;;;;;;;;;;;;;;;;;;
2020/12/28 11:34:07;;;;;;;2.08;1.60;;;5.50;91.30;;;;;;6186318;23;20089;-88
2020/12/28 11:40:30;;;;;;;;;;;;;;;;;;;;;
2020/12/28 11:43:30;;;;;;;4.38;1.65;;;5.50;91.20;;;;;;6186007;23;20753;-88
2020/12/28 11:46:16;;;;;;;2.80;1.48;;;5.50;91.20;;;;;;6164259;23;20013;-86
2020/12/28 11:49:09;;;;;;;2.40;1.45;;;5.40;91.10;;;;;;6185142;23;19997;-87
2020/12/28 11:52:05;;;;;;;;;;;;;;;;;;;;;
2020/12/28 11:54:45;;;;;;;1.75;1.30;;;5.40;91.20;;;;;;6185152;23;20430;-88
2020/12/28 11:58:17;;;;;;;;;;;;;;;;;;;;;
2020/12/28 12:01:16;;;;;;;2.78;1.50;;;5.50;91.20;;;;;;6128921;23;20089;-88
2020/12/28 12:04:11;;;;;;;2.55;1.40;;;5.50;91.10;;;;;;6166329;23;20005;-88
2020/12/28 12:07:10;;;;;;;;;;;;;;;;;;;;;
2020/12/28 12:13:14;;;;;;;2.05;1.30;;;5.50;91.10;;;;;;6155431;23;20016;-89
2020/12/28 12:16:26;;;;;;;3.70;1.27;;;5.50;91.10;;;;;;6161907;23;20005;-90
2020/12/28 12:19:25;;;;;;;;;;;;;;;;;;;;;
2020/12/28 12:22:38;;;;;;;1.92;1.40;;;5.60;91.10;;;;;;6186756;23;20072;-88
2020/12/28 12:26:13;;;;;;;;;;;;;;;;;;;;;
2020/12/28 12:29:18;;;;;;;3.88;1.50;;;5.60;91.00;;;;;;6089761;23;20085;-87
2020/12/28 12:32:56;;;;;;;;;;;;;;;;;;;;;
2020/12/28 12:45:45;;;;;;;3.17;1.67;;;5.60;90.80;;;;;;6052287;23;20011;-88
2020/12/28 12:48:39;;;;;;;4.43;1.50;;;5.60;90.80;;;;;;6095695;23;20020;-87
2020/12/28 12:54:58;;;;;;;2.03;1.33;;;5.60;90.80;;;;;;6164965;23;20021;-89
2020/12/28 13:01:41;;;;;;;;;;;;;;;;;;;;;
2020/12/28 13:04:58;;;;;;;;;;;;;;;;;;;;;
2020/12/28 13:07:54;;;;;;;;;;;;;;;;;;;;;
2020/12/28 13:11:12;;;;;;;;;;;;;;;;;;;;;
2020/12/28 13:17:48;;;;;;;3.47;1.60;;;6.00;90.80;;;;;;6137450;23;20017;-88
2020/12/28 13:20:27;;;;;;;;;;;;;;;;;;;;;
2020/12/28 13:23:57;;;;;;;2.90;1.70;;;6.10;90.70;;;;;;6185254;23;20089;-89
2020/12/28 13:27:03;;;;;;;2.58;1.48;;;6.10;90.60;;;;;;6030107;23;20007;-88
2020/12/28 13:36:30;;;;;;;3.35;1.70;;;6.10;90.50;;;;;;6003239;23;20378;-88
2020/12/28 13:39:41;;;;;;;;;;;;;;;;;;;;;
2020/12/28 13:42:50;;;;;;;;;;;;;;;;;;;;;
2020/12/28 13:45:59;;;;;;;2.33;1.40;;;6.10;90.30;;;;;;6007892;23;20078;-88
2020/12/28 13:48:32;;;;;;;2.03;1.20;;;6.00;90.30;;;;;;6068284;23;20081;-89
2020/12/28 13:51:34;;;;;;;;;;;;;;;;;;;;;
2020/12/28 13:54:39;;;;;;;3.00;1.30;;;6.00;90.30;;;;;;6185369;23;20097;-87
2020/12/28 13:57:38;;;;;;;;;;;;;;;;;;;;;
2020/12/28 14:00:26;;;;;;;2.47;1.40;;;6.00;90.20;;;;;;6186316;23;20088;-88
2020/12/28 14:03:46;;;;;;;;;;;;;;;;;;;;;
2020/12/28 14:06:32;;;;;;;2.20;1.40;;;5.90;90.20;;;;;;6187910;23;20108;-87
2020/12/28 14:08:58;;;;;;;2.20;1.40;;;5.90;90.20;;;;;;6185204;23;20008;-86
2020/12/28 14:11:29;;;;;;;1.48;0.95;;;5.90;90.10;;;;;;6185751;23;20005;-87
2020/12/28 14:14:05;;;;;;;2.03;1.42;;;5.90;90.10;;;;;;6187482;23;20005;-87
2020/12/28 14:16:35;;;;;;;1.73;1.40;;;5.90;90.10;;;;;;6161539;23;20072;-86
2020/12/28 14:19:09;;;;;;;2.63;1.70;;;5.90;90.10;;;;;;6186273;23;20079;-87
2020/12/28 14:21:57;;;;;;;3.88;2.13;;;5.90;90.10;;;;;;6159875;23;20391;-87
2020/12/28 14:24:39;;;;;;;;;;;;;;;;;;;;;
2020/12/28 14:27:32;;;;;;;;;;;;;;;;;;;;;
2020/12/28 14:30:01;;;;;;;2.72;1.60;;;5.80;90.00;;;;;;6186483;23;20386;-88
2020/12/28 14:32:47;;;;;;;3.17;1.50;;;5.80;90.00;;;;;;6186435;23;20454;-87
2020/12/28 14:35:18;;;;;;;1.85;1.35;;;5.80;90.00;;;;;;6166348;23;20308;-87
2020/12/28 14:40:43;;;;;;;;;;;;;;;;;;;;;
2020/12/28 14:43:14;;;;;;;2.08;1.50;;;5.70;90.00;;;;;;6187008;23;20123;-86
2020/12/28 14:45:49;;;;;;;2.03;1.63;;;5.70;90.00;;;;;;6184885;23;20100;-87
2020/12/28 14:48:44;;;;;;;;;;;;;;;;;;;;;
2020/12/28 14:51:52;;;;;;;;;;;;;;;;;;;;;
2020/12/28 14:55:23;;;;;;;;;;;;;;;;;;;;;
2020/12/28 14:58:17;;;;;;;5.10;1.95;;;5.60;89.90;;;;;;6169012;23;20076;-87
2020/12/28 15:01:44;;;;;;;3.97;2.03;;;5.60;89.90;;;;;;6163869;23;20120;-86
2020/12/28 15:08:25;;;;;;;3.05;2.13;;;5.50;89.60;;;;;;6170665;23;20005;-87
2020/12/28 15:11:05;;;;;;;4.35;2.60;;;5.50;89.50;;;;;;6131550;23;20005;-85
2020/12/28 15:13:35;;;;;;;5.30;2.83;;;5.50;89.50;;;;;;6185447;23;20005;-87
2020/12/28 15:16:17;;;;;;;4.82;2.38;;;5.40;89.50;;;;;;6160684;23;20005;-86
2020/12/28 15:18:57;;;;;;;;;;;;;;;;;;;;;
2020/12/28 15:21:33;;;;;;;6.23;3.37;;;5.40;89.50;;;;;;6186574;23;20076;-86
2020/12/28 15:24:08;;;;;;;5.85;3.45;;;5.40;89.50;;;;;;6185393;23;20009;-87
2020/12/28 15:26:57;;;;;;;5.60;3.60;;;5.40;89.50;;;;;;6137000;23;20047;-85
2020/12/28 15:32:12;;;;;;;5.65;2.88;;;5.30;89.40;;;;;;6169237;23;20036;-86
2020/12/28 15:34:45;;;;;;;6.45;2.97;;;5.30;89.30;;;;;;6184435;23;20407;-87
2020/12/28 15:37:22;;;;;;;3.97;2.40;;;5.30;89.30;;;;;;6161158;23;20009;-87
2020/12/28 15:40:03;;;;;;;;;;;;;;;;;;;;;
2020/12/28 15:42:55;;;;;;;6.68;2.45;;;5.20;89.10;;;;;;6186362;23;20084;-87
2020/12/28 15:45:31;;;;;;;4.28;2.38;;;5.20;89.20;;;;;;6158743;23;20013;-87
2020/12/28 15:48:49;;;;;;;;;;;;;;;;;;;;;
2020/12/28 15:51:28;;;;;;;;;;;;;;;;;;;;;
2020/12/28 15:53:54;;;;;;;5.05;2.53;;;5.20;89.20;;;;;;6185241;23;20451;-87
2020/12/28 15:56:26;;;;;;;5.35;2.63;;;5.20;89.30;;;;;;6184407;23;20028;-86
2020/12/28 15:59:27;;;;;;;;;;;;;;;;;;;;;
2020/12/28 16:08:07;;;;;;;;;;;;;;;;;;;;;
2020/12/28 16:10:48;;;;;;;6.50;4.03;;;5.10;89.50;;;;;;6186981;23;20076;-87
2020/12/28 16:16:53;;;;;;;;;;;;;;;;;;;;;
2020/12/28 16:19:31;;;;;;;6.68;4.45;;;5.10;89.70;;;;;;6056425;23;20014;-87
2020/12/28 16:22:31;;;;;;;12.48;7.65;;;5.10;89.70;;;;;;6184589;23;20001;-90
2020/12/28 16:25:30;;;;;;;;;;;;;;;;;;;;;
2020/12/28 16:28:13;;;;;;;8.43;4.20;;;5.00;89.50;;;;;;6173870;23;20084;-88
2020/12/28 16:30:51;;;;;;;5.13;3.53;;;5.00;89.50;;;;;;6163232;23;20461;-86
2020/12/28 16:37:30;;;;;;;;;;;;;;;;;;;;;
2020/12/28 16:39:51;;;;;;;6.65;4.00;;;4.90;89.30;;;;;;6168559;23;20009;-87
2020/12/28 16:43:07;;;;;;;6.20;3.70;;;4.80;89.20;;;;;;6186339;23;19997;-89
2020/12/28 16:48:45;;;;;;;6.65;3.65;;;4.80;89.20;;;;;;6170676;23;20043;-88
2020/12/28 16:51:14;;;;;;;5.20;3.05;;;4.80;89.30;;;;;;6184281;23;20028;-88
2020/12/28 16:54:06;;;;;;;4.40;2.90;;;4.80;89.30;;;;;;6183414;23;20021;-92
2020/12/28 16:56:34;;;;;;;5.05;2.67;;;4.80;89.30;;;;;;6185778;23;20128;-88
2020/12/28 16:59:14;;;;;;;;;;;;;;;;;;;;;
2020/12/28 17:05:24;;;;;;;5.80;3.10;;;4.90;89.30;;;;;;6184511;23;20044;-91
2020/12/28 17:11:28;;;;;;;;;;;;;;;;;;;;;
2020/12/28 17:14:25;;;;;;;5.90;3.35;;;4.80;89.20;;;;;;6184290;23;20490;-88
2020/12/28 17:17:23;;;;;;;5.50;3.40;;;4.80;89.20;;;;;;6049973;23;20059;-87
2020/12/28 17:19:52;;;;;;;6.72;4.03;;;4.80;89.40;;;;;;6167042;23;20016;-89
2020/12/28 17:22:31;;;;;;;7.53;4.32;;;4.80;89.40;;;;;;6182731;23;20092;-86
2020/12/28 17:25:56;;;;;;;;;;;;;;;;;;;;;
2020/12/28 17:29:05;;;;;;;4.90;3.42;;;4.90;89.40;;;;;;6184738;23;20531;-87
2020/12/28 17:32:59;;;;;;;7.38;3.63;;;4.90;89.40;;;;;;6180756;23;20005;-89
2020/12/28 17:35:37;;;;;;;;;;;;;;;;;;;;;
2020/12/28 17:38:39;;;;;;;;;;;;;;;;;;;;;
2020/12/28 17:41:33;;;;;;;6.22;4.07;;;5.00;89.40;;;;;;6184473;23;20089;-87
2020/12/28 17:44:15;;;;;;;9.35;5.90;;;4.90;89.30;;;;;;6161884;23;20470;-86
2020/12/28 17:46:53;;;;;;;;;;;;;;;;;;;;;
2020/12/28 17:50:15;;;;;;;7.55;4.25;;;4.90;89.30;;;;;;6184713;23;20080;-88
2020/12/28 17:52:46;;;;;;;8.02;4.40;;;5.00;89.50;;;;;;6182871;23;20013;-87
2020/12/28 17:55:54;;;;;;;;;;;;;;;;;;;;;
2020/12/28 17:58:38;;;;;;;;;;;;;;;;;;;;;
2020/12/28 18:01:14;;;;;;;;;;;;;;;;;;;;;
2020/12/28 18:03:53;;;;;;;4.90;3.83;;;5.00;89.70;;;;;;6185161;23;20089;-87
2020/12/28 18:06:30;;;;;;;6.80;4.68;;;5.00;89.80;;;;;;6183687;23;20091;-86
2020/12/28 18:09:06;;;;;;;6.72;4.28;;;5.00;89.80;;;;;;6158132;23;20005;-90
2020/12/28 18:11:46;;;;;;;6.85;4.60;;;5.00;89.90;;;;;;6183380;23;20427;-89
2020/12/28 18:14:20;;;;;;;10.57;4.82;;;5.00;90.00;;;;;;6182564;23;20105;-87
2020/12/28 18:16:51;;;;;;;9.18;4.25;;;4.90;90.00;;;;;;6182723;23;20009;-88
2020/12/28 18:19:39;;;;;;;;;;;;;;;;;;;;;
2020/12/28 18:22:26;;;;;;;;;;;;;;;;;;;;;
2020/12/28 18:25:16;;;;;;;;;;;;;;;;;;;;;
2020/12/28 18:28:05;;;;;;;7.00;4.53;;;4.90;90.20;;;;;;6184059;23;20100;-88
2020/12/28 18:31:24;;;;;;;;;;;;;;;;;;;;;
2020/12/28 18:34:15;;;;;;;;;;;;;;;;;;;;;
2020/12/28 18:36:45;;;;;;;5.97;4.95;;;5.00;90.40;;;;;;6182926;23;20096;-87
2020/12/28 18:39:18;;;;;;;7.18;4.57;;;5.00;90.40;;;;;;6181989;23;20045;-86
2020/12/28 18:44:54;;;;;;;;;;;;;;;;;;;;;
2020/12/28 18:47:22;;;;;;;6.05;4.47;;;5.00;90.60;;;;;;6185466;23;20080;-86
2020/12/28 18:50:05;;;;;;;9.07;5.20;;;5.00;90.70;;;;;;6184432;23;20012;-85
2020/12/28 18:52:37;;;;;;;7.28;5.25;;;5.00;90.70;;;;;;6159593;23;20008;-87
2020/12/28 18:55:05;;;;;;;6.95;5.30;;;5.00;90.80;;;;;;6183401;23;20013;-86
2020/12/28 18:58:06;;;;;;;7.65;5.03;;;5.00;90.90;;;;;;6184216;23;20431;-91
2020/12/28 19:01:06;;;;;;;5.72;4.63;;;5.00;90.90;;;;;;6185246;23;20005;-88
2020/12/28 19:10:02;;;;;;;6.47;4.78;;;5.00;91.00;;;;;;6149153;23;20435;-90
2020/12/28 19:12:50;;;;;;;5.70;3.92;;;5.00;91.10;;;;;;6186374;23;20120;-92
2020/12/28 19:15:37;;;;;;;5.78;4.03;;;5.00;91.20;;;;;;6163213;23;20104;-88
2020/12/28 19:18:35;;;;;;;5.25;4.22;;;5.00;91.20;;;;;;6160384;23;20096;-90
2020/12/28 19:24:34;;;;;;;;;;;;;;;;;;;;;
2020/12/28 19:27:19;;;;;;;;;;;;;;;;;;;;;
2020/12/28 19:30:04;;;;;;;6.35;4.38;;;4.90;91.20;;;;;;6184496;23;20579;-89
2020/12/28 19:35:45;;;;;;;;;;;;;;;;;;;;;
2020/12/28 19:38:39;;;;;;;5.18;4.15;;;4.90;91.30;;;;;;6184564;23;20100;-87
2020/12/28 19:41:40;;;;;;;5.57;4.20;;;4.90;91.30;;;;;;6149435;23;20064;-88
2020/12/28 19:44:18;;;;;;;5.28;3.88;;;4.90;91.40;;;;;;6185499;23;20001;-87
2020/12/28 19:47:08;;;;;;;5.18;3.72;;;4.90;91.40;;;;;;6158498;23;20047;-87
2020/12/28 19:50:07;;;;;;;;;;;;;;;;;;;;;
2020/12/28 19:52:42;;;;;;;4.63;3.90;;;4.90;91.40;;;;;;6185233;23;20080;-88
2020/12/28 19:55:11;;;;;;;6.60;4.50;;;4.90;91.40;;;;;;6183580;23;20100;-87
2020/12/28 19:58:08;;;;;;;;;;;;;;;;;;;;;
2020/12/28 20:00:40;;;;;;;5.57;4.20;;;4.90;91.50;;;;;;6184736;23;20084;-89
2020/12/28 20:03:56;;;;;;;;;;;;;;;;;;;;;
2020/12/28 20:06:35;;;;;;;6.10;4.47;;;5.00;91.50;;;;;;6185057;23;20087;-87
2020/12/28 20:09:21;;;;;;;5.45;4.53;;;4.90;91.50;;;;;;6161482;23;20013;-88
2020/12/28 20:12:05;;;;;;;;;;;;;;;;;;;;;
2020/12/28 20:15:15;;;;;;;6.35;4.90;;;5.00;91.60;;;;;;6184122;23;20527;-88
2020/12/28 20:17:45;;;;;;;7.45;5.35;;;5.00;91.70;;;;;;6182594;23;20489;-88
2020/12/28 20:20:58;;;;;;;6.18;5.28;;;4.90;91.70;;;;;;6160948;23;20009;-88
2020/12/28 20:24:35;;;;;;;;;;;;;;;;;;;;;
2020/12/28 20:27:59;;;;;;;;;;;;;;;;;;;;;
2020/12/28 20:30:55;;;;;;;8.73;5.65;;;4.90;92.20;;;;;;6162768;23;20076;-89
2020/12/28 20:33:48;;;;;;;;;;;;;;;;;;;;;
2020/12/28 20:36:36;;;;;;;;;;;;;;;;;;;;;
2020/12/28 20:39:24;;;;;;;;;;;;;;;;;;;;;
2020/12/28 20:45:29;;;;;;;;;;;;;;;;;;;;;
2020/12/28 20:48:00;;;;;;;9.70;7.43;;;5.00;92.10;;;;;;6096247;23;20089;-87
2020/12/28 20:53:19;;;;;;;10.27;8.38;;;5.00;92.10;;;;;;6158982;23;20033;-88
2020/12/28 20:55:53;;;;;;;10.52;8.68;;;5.00;92.10;;;;;;6184021;23;20009;-86
2020/12/28 20:58:25;;;;;;;12.65;9.48;;;5.00;92.20;;;;;;6160568;23;20012;-86
2020/12/28 21:00:53;;;;;;;10.10;8.35;;;5.00;92.20;;;;;;6136547;23;20426;-88
2020/12/28 21:03:19;;;;;;;11.32;8.65;;;5.00;92.30;;;;;;6184131;23;20315;-87
2020/12/28 21:06:31;;;;;;;11.93;8.57;;;5.00;92.30;;;;;;6159887;23;20039;-86
2020/12/28 21:09:09;;;;;;;11.75;9.30;;;5.00;92.30;;;;;;6166839;23;20002;-87
2020/12/28 21:11:56;;;;;;;;;;;;;;;;;;;;;
2020/12/28 21:17:23;;;;;;;;;;;;;;;;;;;;;
2020/12/28 21:19:59;;;;;;;;;;;;;;;;;;;;;
2020/12/28 21:22:41;;;;;;;10.80;8.88;;;5.10;92.40;;;;;;6182648;23;20076;-87
2020/12/28 21:25:21;;;;;;;11.80;8.95;;;5.10;92.40;;;;;;6159020;23;20092;-86
2020/12/28 21:28:01;;;;;;;10.90;8.80;;;5.10;92.40;;;;;;6184089;23;20008;-87
2020/12/28 21:30:28;;;;;;;11.00;8.83;;;5.10;92.40;;;;;;6160634;23;20379;-86
2020/12/28 21:33:23;;;;;;;12.38;8.45;;;5.10;92.70;;;;;;6134366;23;20096;-87
2020/12/28 21:35:49;;;;;;;13.25;9.45;;;5.10;92.50;;;;;;6179478;23;20439;-88
2020/12/28 21:38:18;;;;;;;11.77;8.68;;;5.10;92.40;;;;;;6185659;23;20009;-89
2020/12/28 21:41:26;;;;;;;13.13;8.98;;;5.10;92.50;;;;;;6159579;23;20016;-87
2020/12/28 21:44:27;;;;;;;11.55;10.00;;;5.10;92.50;;;;;;6164316;23;20005;-88
2020/12/28 21:47:10;;;;;;;;;;;;;;;;;;;;;
2020/12/28 21:50:33;;;;;;;;;;;;;;;;;;;;;